Time;durP1;ratioP1;P1;durP2;ratioP2;P2;SDS_P1;SDS_P2;PMS_P1;PMS_P2;Temp;Humidity;BMP_temperature;BMP_pressure;BME280_temperature;BME280_humidity;BME280_pressure;Samples;Min_cycle;Max_cycle;Signal;HPM_P1;HPM_P2
2021/09/16 00:01:39;;;;;;;2.10;0.80;;;23.00;61.40;;;;;;2355551;53;21608;-69
2021/09/16 00:04:05;;;;;;;1.20;0.60;;;23.00;61.40;;;;;;2356525;52;25572;-71
2021/09/16 00:06:31;;;;;;;1.37;0.60;;;23.00;61.40;;;;;;2352525;53;20989;-70
2021/09/16 00:08:58;;;;;;;1.45;0.70;;;23.00;61.40;;;;;;2351377;53;21012;-73
2021/09/16 00:11:25;;;;;;;0.85;0.45;;;23.00;61.40;;;;;;2364902;52;20974;-72
2021/09/16 00:13:51;;;;;;;1.70;0.52;;;23.00;61.50;;;;;;2352389;52;21396;-70
2021/09/16 00:16:18;;;;;;;1.35;0.60;;;23.00;61.60;;;;;;2333153;53;21000;-70
2021/09/16 00:18:44;;;;;;;1.15;0.55;;;23.00;61.60;;;;;;2356098;52;20962;-70
2021/09/16 00:21:10;;;;;;;1.48;0.60;;;23.00;61.60;;;;;;2351162;53;20942;-69
2021/09/16 00:23:37;;;;;;;1.83;0.73;;;23.00;61.60;;;;;;2351413;52;20942;-70
2021/09/16 00:26:03;;;;;;;1.35;0.80;;;22.90;61.50;;;;;;2352277;53;20981;-72
2021/09/16 00:28:29;;;;;;;1.60;0.70;;;22.90;61.50;;;;;;2356841;52;21491;-69
2021/09/16 00:30:55;;;;;;;2.67;1.00;;;22.90;61.60;;;;;;2357230;52;21019;-70
2021/09/16 00:33:22;;;;;;;1.45;0.60;;;22.90;61.60;;;;;;2352528;52;20942;-69
2021/09/16 00:35:48;;;;;;;1.37;0.60;;;22.90;61.60;;;;;;2350483;52;20954;-71
2021/09/16 00:38:15;;;;;;;1.67;0.70;;;22.90;61.60;;;;;;2355328;52;20923;-69
2021/09/16 00:40:41;;;;;;;2.62;0.60;;;22.90;61.70;;;;;;2351341;53;24884;-70
2021/09/16 00:43:07;;;;;;;1.10;0.50;;;22.90;61.70;;;;;;2352495;53;20950;-71
2021/09/16 00:45:33;;;;;;;1.30;0.65;;;22.90;61.80;;;;;;2354458;52;20994;-74
2021/09/16 00:47:59;;;;;;;1.65;0.70;;;22.90;61.90;;;;;;2351187;52;20949;-70
2021/09/16 00:50:26;;;;;;;1.40;0.50;;;22.90;61.90;;;;;;2351809;52;20954;-69
2021/09/16 00:52:52;;;;;;;1.17;0.60;;;22.80;61.80;;;;;;2350976;53;21076;-69
2021/09/16 00:55:19;;;;;;;1.87;0.80;;;22.80;61.90;;;;;;2601388;52;20942;-72
2021/09/16 00:57:54;;;;;;;1.70;0.60;;;22.80;62.00;;;;;;2443710;52;20962;-70
2021/09/16 01:00:20;;;;;;;2.20;1.42;;;22.80;62.20;;;;;;2332441;53;22441;-70
2021/09/16 01:02:47;;;;;;;2.20;0.70;;;22.80;62.00;;;;;;2426956;52;20957;-71
2021/09/16 01:05:13;;;;;;;2.75;0.80;;;22.80;62.00;;;;;;2352174;52;20977;-70
2021/09/16 01:07:39;;;;;;;1.87;0.60;;;22.80;62.10;;;;;;2352178;53;21977;-69
2021/09/16 01:10:09;;;;;;;2.55;0.75;;;22.80;62.10;;;;;;2357614;53;21052;-70
2021/09/16 01:12:36;;;;;;;1.40;0.60;;;22.80;62.20;;;;;;2353822;53;21002;-69
2021/09/16 01:15:04;;;;;;;1.65;0.60;;;22.80;62.10;;;;;;2352711;53;21589;-71
2021/09/16 01:17:30;;;;;;;1.77;0.60;;;22.80;62.20;;;;;;2350914;52;20990;-72
2021/09/16 01:19:56;;;;;;;1.58;0.50;;;22.80;62.20;;;;;;2352052;52;20977;-69
2021/09/16 01:22:23;;;;;;;2.00;0.88;;;22.80;62.20;;;;;;2524560;52;22065;-70
2021/09/16 01:24:49;;;;;;;2.12;0.70;;;22.80;62.10;;;;;;2511926;52;21001;-73
2021/09/16 01:27:15;;;;;;;1.90;0.80;;;22.80;62.20;;;;;;2351612;53;20986;-69
2021/09/16 01:29:42;;;;;;;2.08;0.90;;;22.80;62.20;;;;;;2355182;52;20955;-70
2021/09/16 01:32:08;;;;;;;1.60;0.60;;;22.80;62.30;;;;;;2495005;52;20941;-73
2021/09/16 01:34:34;;;;;;;1.95;0.88;;;22.80;62.30;;;;;;2356013;53;20966;-74
2021/09/16 01:37:01;;;;;;;1.50;0.60;;;22.70;62.20;;;;;;2598383;52;21545;-70
2021/09/16 01:39:27;;;;;;;2.17;0.70;;;22.70;62.30;;;;;;2355892;52;21051;-71
2021/09/16 01:41:53;;;;;;;2.05;0.80;;;22.70;62.30;;;;;;2407262;52;20910;-72
2021/09/16 01:44:20;;;;;;;1.40;0.70;;;22.70;62.40;;;;;;2602647;52;20986;-70
2021/09/16 01:46:46;;;;;;;1.80;0.75;;;22.70;62.40;;;;;;2355344;53;21484;-70
2021/09/16 01:49:13;;;;;;;1.50;0.68;;;22.70;62.40;;;;;;2350452;53;20961;-70
2021/09/16 01:51:39;;;;;;;1.50;0.60;;;22.70;62.50;;;;;;2335910;52;20970;-70
2021/09/16 01:54:06;;;;;;;2.45;0.77;;;22.70;62.50;;;;;;2351984;53;21085;-70
2021/09/16 01:56:32;;;;;;;2.10;0.77;;;22.70;62.60;;;;;;2351728;53;21455;-69
2021/09/16 01:58:58;;;;;;;2.87;0.80;;;22.70;62.60;;;;;;2425381;52;22180;-69
2021/09/16 02:01:24;;;;;;;3.37;0.80;;;22.70;62.60;;;;;;2352253;53;21943;-69
2021/09/16 02:03:52;;;;;;;2.53;0.80;;;22.70;62.70;;;;;;2550301;52;20959;-71
2021/09/16 02:06:20;;;;;;;1.42;0.70;;;22.70;62.60;;;;;;2355990;52;21026;-68
2021/09/16 02:08:46;;;;;;;1.52;0.77;;;22.70;63.30;;;;;;2354117;52;21998;-71
2021/09/16 02:11:13;;;;;;;3.30;0.82;;;22.70;62.60;;;;;;2407036;52;20945;-69
2021/09/16 02:13:39;;;;;;;2.40;0.90;;;22.70;62.60;;;;;;2351686;52;20949;-69
2021/09/16 02:16:05;;;;;;;3.33;0.90;;;22.70;62.60;;;;;;2350684;53;20961;-68
2021/09/16 02:18:31;;;;;;;2.20;1.00;;;22.70;62.70;;;;;;2354335;53;20930;-67
2021/09/16 02:20:58;;;;;;;1.90;0.93;;;22.60;62.20;;;;;;2333081;53;20906;-66
2021/09/16 02:23:30;;;;;;;2.58;0.70;;;22.50;62.10;;;;;;2373726;52;20962;-68
2021/09/16 02:25:57;;;;;;;3.53;0.90;;;22.40;62.40;;;;;;2541454;52;21682;-69
2021/09/16 02:28:23;;;;;;;1.73;0.75;;;22.30;62.40;;;;;;2351974;53;20926;-69
2021/09/16 02:30:49;;;;;;;1.67;0.60;;;22.20;62.80;;;;;;2354958;53;20947;-68
2021/09/16 02:33:16;;;;;;;2.08;0.65;;;22.10;63.30;;;;;;2352142;53;20973;-72
2021/09/16 02:35:42;;;;;;;2.75;0.98;;;22.00;63.90;;;;;;2351566;52;20958;-69
2021/09/16 02:38:09;;;;;;;2.45;0.80;;;22.00;64.50;;;;;;2356991;52;20982;-76
2021/09/16 02:40:35;;;;;;;2.12;0.90;;;21.90;65.00;;;;;;2352023;53;20965;-73
2021/09/16 02:43:01;;;;;;;2.28;0.90;;;21.80;65.50;;;;;;2352198;52;20985;-72
2021/09/16 02:45:27;;;;;;;2.83;1.10;;;21.80;66.10;;;;;;2352055;53;20957;-69
2021/09/16 02:47:54;;;;;;;5.05;1.23;;;21.70;66.60;;;;;;2369118;52;20954;-74
2021/09/16 02:50:21;;;;;;;2.08;1.00;;;21.70;67.10;;;;;;2351946;53;20992;-69
2021/09/16 02:52:47;;;;;;;1.95;0.88;;;21.70;67.70;;;;;;2351439;53;20945;-73
2021/09/16 02:55:18;;;;;;;1.95;0.80;;;21.60;68.00;;;;;;2601458;52;21016;-71
2021/09/16 02:57:45;;;;;;;1.83;0.80;;;21.60;68.50;;;;;;2602029;52;22059;-71
2021/09/16 03:00:12;;;;;;;1.52;0.73;;;21.60;69.00;;;;;;2356472;52;21121;-71
2021/09/16 03:02:39;;;;;;;1.80;0.60;;;21.50;69.20;;;;;;2601882;52;21120;-71
2021/09/16 03:05:06;;;;;;;2.10;0.80;;;21.50;69.60;;;;;;2366987;52;21565;-72
2021/09/16 03:07:32;;;;;;;2.35;0.98;;;21.60;70.10;;;;;;2352593;52;20913;-73
2021/09/16 03:09:59;;;;;;;1.83;0.65;;;21.50;70.30;;;;;;2436236;52;21005;-70
2021/09/16 03:12:25;;;;;;;2.90;0.70;;;21.50;70.50;;;;;;2357002;52;22074;-72
2021/09/16 03:14:52;;;;;;;1.42;0.70;;;21.50;70.70;;;;;;2342621;53;21029;-73
2021/09/16 03:17:18;;;;;;;1.37;0.50;;;21.50;71.00;;;;;;2347369;53;21050;-73
2021/09/16 03:19:44;;;;;;;2.05;0.77;;;21.50;71.20;;;;;;2345460;53;20990;-70
2021/09/16 03:22:12;;;;;;;1.90;0.70;;;21.50;71.40;;;;;;2357165;52;20950;-72
2021/09/16 03:24:38;;;;;;;1.85;0.73;;;21.50;71.60;;;;;;2352178;52;20970;-71
2021/09/16 03:27:05;;;;;;;1.55;0.70;;;21.50;71.80;;;;;;2355664;52;21042;-72
2021/09/16 03:29:31;;;;;;;1.80;0.70;;;21.50;72.00;;;;;;2374409;52;21026;-72
2021/09/16 03:31:57;;;;;;;6.72;0.90;;;21.50;72.10;;;;;;2398345;52;20958;-72
2021/09/16 03:34:23;;;;;;;2.05;0.85;;;21.50;72.30;;;;;;2357085;52;21014;-74
2021/09/16 03:36:50;;;;;;;2.50;0.77;;;21.50;72.30;;;;;;2344220;53;20972;-71
2021/09/16 03:39:16;;;;;;;2.37;1.00;;;21.60;72.60;;;;;;2347675;53;20985;-70
2021/09/16 03:41:43;;;;;;;2.08;0.95;;;21.60;72.60;;;;;;2353127;53;20973;-74
2021/09/16 03:44:09;;;;;;;2.08;0.70;;;21.60;72.80;;;;;;2352831;53;22072;-74
2021/09/16 03:46:36;;;;;;;2.67;0.90;;;21.60;72.90;;;;;;2356217;52;20942;-70
2021/09/16 03:49:02;;;;;;;2.08;0.90;;;21.60;73.10;;;;;;2354077;53;20941;-71
2021/09/16 03:51:29;;;;;;;1.75;0.73;;;21.60;73.30;;;;;;2353606;52;20997;-72
2021/09/16 03:53:55;;;;;;;2.03;0.75;;;21.60;73.40;;;;;;2353415;53;21352;-75
2021/09/16 03:56:22;;;;;;;2.08;0.70;;;21.60;73.50;;;;;;2353507;53;20933;-72
2021/09/16 03:58:48;;;;;;;1.75;0.80;;;21.60;73.60;;;;;;2354189;53;20941;-73
2021/09/16 04:01:14;;;;;;;2.72;1.02;;;21.60;73.60;;;;;;2359068;52;20974;-74
2021/09/16 04:03:41;;;;;;;3.20;1.37;;;21.70;73.80;;;;;;2353725;53;20898;-71
2021/09/16 04:06:07;;;;;;;2.50;1.05;;;21.60;73.70;;;;;;2354293;53;21005;-72
2021/09/16 04:08:33;;;;;;;2.45;1.02;;;21.60;73.80;;;;;;2376482;52;21034;-72
2021/09/16 04:10:59;;;;;;;2.75;1.17;;;21.60;73.80;;;;;;2353460;52;20925;-75
2021/09/16 04:13:26;;;;;;;3.67;1.35;;;21.60;73.90;;;;;;2389701;52;20966;-72
2021/09/16 04:15:55;;;;;;;1.92;0.90;;;21.70;74.00;;;;;;2353084;53;21025;-73
2021/09/16 04:18:21;;;;;;;3.35;1.30;;;21.70;74.00;;;;;;2393567;52;20954;-73
2021/09/16 04:20:47;;;;;;;2.10;0.93;;;21.70;74.00;;;;;;2338567;53;21058;-72
2021/09/16 04:23:15;;;;;;;2.58;1.00;;;21.70;74.10;;;;;;2414984;52;22471;-72
2021/09/16 04:25:41;;;;;;;2.40;1.00;;;21.70;74.10;;;;;;2352187;53;22110;-73
2021/09/16 04:28:07;;;;;;;2.05;0.90;;;21.70;74.20;;;;;;2353065;54;20953;-72
2021/09/16 04:30:34;;;;;;;1.83;0.90;;;21.70;74.20;;;;;;2357387;52;21062;-73
2021/09/16 04:33:00;;;;;;;2.33;1.10;;;21.70;74.30;;;;;;2351131;52;20923;-72
2021/09/16 04:35:26;;;;;;;2.33;1.10;;;21.70;74.20;;;;;;2382938;52;20978;-72
2021/09/16 04:37:53;;;;;;;2.42;1.00;;;21.70;74.20;;;;;;2337377;53;22020;-73
2021/09/16 04:40:19;;;;;;;2.20;1.00;;;21.70;74.30;;;;;;2353727;53;20921;-71
2021/09/16 04:42:46;;;;;;;2.30;1.20;;;21.70;74.30;;;;;;2408219;52;21074;-73
2021/09/16 04:45:13;;;;;;;2.30;0.90;;;21.70;74.30;;;;;;2353718;53;20993;-72
2021/09/16 04:47:40;;;;;;;2.10;0.88;;;21.60;74.30;;;;;;2378490;52;20941;-73
2021/09/16 04:50:09;;;;;;;2.53;1.12;;;21.60;74.30;;;;;;2416381;52;21258;-76
2021/09/16 04:52:35;;;;;;;2.35;1.15;;;21.60;74.40;;;;;;2352739;52;20929;-72
2021/09/16 04:55:01;;;;;;;2.58;1.27;;;21.60;74.50;;;;;;2357116;52;20971;-73
2021/09/16 04:57:28;;;;;;;2.65;1.17;;;21.60;74.60;;;;;;2540104;52;20965;-70
2021/09/16 04:59:55;;;;;;;2.00;1.10;;;21.60;74.60;;;;;;2493402;52;20965;-74
2021/09/16 05:02:21;;;;;;;2.40;1.10;;;21.60;74.60;;;;;;2352604;53;20917;-73
2021/09/16 05:04:48;;;;;;;2.83;1.12;;;21.60;74.70;;;;;;2357112;52;21822;-73
2021/09/16 05:07:16;;;;;;;2.97;1.20;;;21.60;74.70;;;;;;2349635;53;21016;-71
2021/09/16 05:09:42;;;;;;;2.70;1.10;;;21.60;74.70;;;;;;2356246;52;22032;-73
2021/09/16 05:12:09;;;;;;;2.20;1.02;;;21.60;74.80;;;;;;2355643;52;20933;-73
2021/09/16 05:14:36;;;;;;;3.60;1.65;;;21.60;74.90;;;;;;2454535;52;20974;-70
2021/09/16 05:17:02;;;;;;;5.25;1.42;;;21.60;74.90;;;;;;2340143;53;20966;-73
2021/09/16 05:19:28;;;;;;;2.42;1.02;;;21.60;75.00;;;;;;2492433;52;22221;-73
2021/09/16 05:21:55;;;;;;;5.28;0.95;;;21.60;75.10;;;;;;2359108;52;20906;-76
2021/09/16 05:24:21;;;;;;;1.98;1.00;;;21.70;75.30;;;;;;2352768;53;20958;-75
2021/09/16 05:26:47;;;;;;;2.85;1.48;;;21.70;75.40;;;;;;2346765;53;20942;-72
2021/09/16 05:29:14;;;;;;;1.80;0.95;;;21.70;75.50;;;;;;2420323;52;20930;-73
2021/09/16 05:31:40;;;;;;;2.60;1.10;;;21.70;75.60;;;;;;2352169;53;20954;-75
2021/09/16 05:34:06;;;;;;;2.35;0.90;;;21.70;75.60;;;;;;2360943;52;20983;-73
2021/09/16 05:36:32;;;;;;;2.22;1.00;;;21.70;75.70;;;;;;2371071;52;21013;-71
2021/09/16 05:38:59;;;;;;;2.70;1.42;;;21.70;75.80;;;;;;2357197;52;20917;-75
2021/09/16 05:41:25;;;;;;;1.85;0.80;;;21.70;75.80;;;;;;2353076;53;21048;-73
2021/09/16 05:43:51;;;;;;;2.35;1.15;;;21.80;75.90;;;;;;2357598;52;21021;-73
2021/09/16 05:46:18;;;;;;;2.12;0.80;;;21.80;75.90;;;;;;2350303;53;20973;-72
2021/09/16 05:48:44;;;;;;;1.75;0.93;;;21.80;75.90;;;;;;2603961;52;21002;-73
2021/09/16 05:51:10;;;;;;;2.25;0.98;;;21.80;75.90;;;;;;2342538;53;21037;-72
2021/09/16 05:53:37;;;;;;;3.25;1.45;;;21.80;75.90;;;;;;2357290;52;20966;-74
2021/09/16 05:56:03;;;;;;;2.50;1.23;;;21.80;75.90;;;;;;2429381;52;20930;-74
2021/09/16 05:58:30;;;;;;;3.42;1.23;;;21.80;75.80;;;;;;2354209;53;21028;-72
2021/09/16 06:00:56;;;;;;;2.78;1.20;;;21.80;75.70;;;;;;2353805;53;21593;-75
2021/09/16 06:03:22;;;;;;;3.47;1.60;;;21.80;75.50;;;;;;2530059;52;20937;-71
2021/09/16 06:05:49;;;;;;;3.87;1.60;;;21.80;75.20;;;;;;2352937;53;20973;-71
2021/09/16 06:08:15;;;;;;;2.42;1.27;;;21.80;75.00;;;;;;2363436;52;20986;-72
2021/09/16 06:10:41;;;;;;;3.33;1.58;;;21.70;74.70;;;;;;2348353;53;21424;-69
2021/09/16 06:13:07;;;;;;;2.80;1.15;;;21.70;74.70;;;;;;2560622;52;20970;-73
2021/09/16 06:15:34;;;;;;;3.97;1.10;;;21.60;74.60;;;;;;2356702;52;20992;-71
2021/09/16 06:18:00;;;;;;;2.33;1.10;;;21.60;74.60;;;;;;2354085;53;20967;-75
2021/09/16 06:20:27;;;;;;;2.20;1.10;;;21.50;74.60;;;;;;2351997;53;21132;-70
2021/09/16 06:22:53;;;;;;;3.00;1.40;;;21.40;74.80;;;;;;2352997;53;21069;-71
2021/09/16 06:25:19;;;;;;;2.37;1.30;;;21.40;75.00;;;;;;2349767;53;21057;-71
2021/09/16 06:27:45;;;;;;;3.33;1.25;;;21.30;75.10;;;;;;2356083;52;21522;-74
2021/09/16 06:30:12;;;;;;;3.35;1.60;;;21.30;75.40;;;;;;2351528;53;20969;-73
2021/09/16 06:32:38;;;;;;;3.15;1.52;;;21.20;75.30;;;;;;2348781;53;20930;-70
2021/09/16 06:35:05;;;;;;;2.87;1.30;;;21.20;75.40;;;;;;2351923;53;20970;-72
2021/09/16 06:37:31;;;;;;;2.90;1.60;;;21.10;75.40;;;;;;2357572;52;21594;-71
2021/09/16 06:39:58;;;;;;;3.28;1.40;;;21.10;75.40;;;;;;2351664;53;21633;-71
2021/09/16 06:42:24;;;;;;;2.78;1.30;;;21.10;75.40;;;;;;2352363;53;21012;-71
2021/09/16 06:44:50;;;;;;;2.83;1.33;;;21.00;75.60;;;;;;2357442;52;20974;-72
2021/09/16 06:47:17;;;;;;;2.85;1.37;;;21.00;75.90;;;;;;2351868;52;20913;-75
2021/09/16 06:49:46;;;;;;;2.60;1.42;;;21.00;76.30;;;;;;2401595;52;21076;-72
2021/09/16 06:52:13;;;;;;;4.45;1.40;;;21.00;76.60;;;;;;2316786;53;20977;-70
2021/09/16 06:54:39;;;;;;;3.00;1.45;;;21.00;76.80;;;;;;2352107;53;21883;-72
2021/09/16 06:57:06;;;;;;;3.65;1.92;;;21.00;77.00;;;;;;2359951;52;21209;-71
2021/09/16 06:59:32;;;;;;;3.40;1.92;;;21.00;77.00;;;;;;2350856;53;22104;-72
2021/09/16 07:01:59;;;;;;;2.70;1.50;;;21.00;77.00;;;;;;2439811;52;21070;-72
2021/09/16 07:04:25;;;;;;;3.67;1.85;;;21.00;76.80;;;;;;2352500;53;20981;-73
2021/09/16 07:06:51;;;;;;;3.35;1.90;;;21.00;76.80;;;;;;2352283;53;20962;-72
2021/09/16 07:09:18;;;;;;;4.05;2.20;;;20.90;76.70;;;;;;2359222;52;21049;-70
2021/09/16 07:11:44;;;;;;;5.22;2.17;;;20.90;76.60;;;;;;2356408;52;20967;-70
2021/09/16 07:14:10;;;;;;;3.33;2.22;;;20.90;76.30;;;;;;2351385;53;21060;-74
2021/09/16 07:16:37;;;;;;;3.70;2.47;;;20.90;76.00;;;;;;2351739;53;20957;-72
2021/09/16 07:19:03;;;;;;;5.80;2.65;;;20.80;75.70;;;;;;2354330;52;20981;-70
2021/09/16 07:21:30;;;;;;;4.97;3.33;;;20.80;75.60;;;;;;2352436;53;20962;-74
2021/09/16 07:23:56;;;;;;;4.50;2.83;;;20.80;75.80;;;;;;2352059;53;20969;-74
2021/09/16 07:26:24;;;;;;;4.75;3.00;;;20.70;75.80;;;;;;2352497;53;20953;-72
2021/09/16 07:28:51;;;;;;;4.60;2.90;;;20.70;76.10;;;;;;2356256;53;22091;-73
2021/09/16 07:31:19;;;;;;;5.10;3.42;;;20.70;76.30;;;;;;2352240;53;21061;-73
2021/09/16 07:33:45;;;;;;;3.80;2.40;;;20.60;76.40;;;;;;2508601;52;21053;-74
2021/09/16 07:36:11;;;;;;;4.30;2.90;;;20.60;76.70;;;;;;2352540;53;20937;-72
2021/09/16 07:38:38;;;;;;;4.47;3.03;;;20.60;76.90;;;;;;2356744;52;20939;-74
2021/09/16 07:41:04;;;;;;;4.57;2.83;;;20.60;76.90;;;;;;2352863;53;20990;-72
2021/09/16 07:43:31;;;;;;;4.32;3.03;;;20.60;76.80;;;;;;2358421;52;20958;-71
2021/09/16 07:45:57;;;;;;;4.50;3.10;;;20.60;76.90;;;;;;2357426;52;21025;-73
2021/09/16 07:48:23;;;;;;;4.75;2.85;;;20.60;77.00;;;;;;2352222;53;21788;-75
2021/09/16 07:50:50;;;;;;;4.72;2.90;;;20.60;77.20;;;;;;2353107;53;20978;-73
2021/09/16 07:53:16;;;;;;;5.62;3.28;;;20.50;77.10;;;;;;2351796;53;20926;-72
2021/09/16 07:55:42;;;;;;;5.62;2.83;;;20.60;77.20;;;;;;2353007;53;21009;-72
2021/09/16 07:58:09;;;;;;;4.68;3.08;;;20.60;77.30;;;;;;2429255;52;20994;-73
2021/09/16 08:00:35;;;;;;;5.20;3.05;;;20.60;77.50;;;;;;2352111;53;20938;-74
2021/09/16 08:03:01;;;;;;;6.70;3.70;;;20.50;77.50;;;;;;2357179;52;21463;-73
2021/09/16 08:05:28;;;;;;;5.37;3.00;;;20.60;77.70;;;;;;2352959;53;20973;-75
2021/09/16 08:07:54;;;;;;;5.47;3.28;;;20.60;77.70;;;;;;2353462;52;20981;-73
2021/09/16 08:10:20;;;;;;;4.53;3.28;;;20.60;77.80;;;;;;2353288;53;21197;-73
2021/09/16 08:12:46;;;;;;;5.95;3.30;;;20.60;77.70;;;;;;2353089;53;20937;-73
2021/09/16 08:15:13;;;;;;;4.65;3.12;;;20.60;77.80;;;;;;2351723;53;22142;-74
2021/09/16 08:17:39;;;;;;;5.03;3.47;;;20.60;77.90;;;;;;2352200;52;21013;-73
2021/09/16 08:20:07;;;;;;;5.50;3.83;;;20.60;77.90;;;;;;2425916;52;21435;-72
2021/09/16 08:22:34;;;;;;;5.78;3.92;;;20.60;78.00;;;;;;2349405;53;21563;-73
2021/09/16 08:25:01;;;;;;;4.75;3.35;;;20.60;78.00;;;;;;2354152;53;20981;-73
2021/09/16 08:27:27;;;;;;;3.85;2.75;;;20.60;78.00;;;;;;2354047;53;20986;-74
2021/09/16 08:29:54;;;;;;;5.10;2.80;;;20.60;78.10;;;;;;2363755;52;20918;-76
2021/09/16 08:32:20;;;;;;;4.18;2.80;;;20.60;78.30;;;;;;2417075;52;20945;-74
2021/09/16 08:34:47;;;;;;;4.97;2.95;;;20.50;78.20;;;;;;2361337;52;20942;-74
2021/09/16 08:37:13;;;;;;;4.85;2.80;;;20.60;78.30;;;;;;2346672;53;21324;-74
2021/09/16 08:39:39;;;;;;;4.43;2.72;;;20.60;78.40;;;;;;2344855;53;21005;-74
2021/09/16 08:42:06;;;;;;;4.60;2.92;;;20.70;78.40;;;;;;2343213;53;20958;-74
2021/09/16 08:44:32;;;;;;;3.90;2.60;;;20.70;78.50;;;;;;2353051;52;20954;-74
2021/09/16 08:46:59;;;;;;;4.75;3.17;;;20.70;78.50;;;;;;2352138;53;20953;-75
2021/09/16 08:49:26;;;;;;;3.85;2.55;;;20.70;78.60;;;;;;2357465;52;20967;-73
2021/09/16 08:51:52;;;;;;;3.22;2.30;;;20.80;78.70;;;;;;2353989;53;21002;-72
2021/09/16 08:54:18;;;;;;;3.85;2.67;;;20.80;78.80;;;;;;2353922;53;21001;-74
2021/09/16 08:56:45;;;;;;;3.22;2.10;;;20.90;79.00;;;;;;2353854;53;20950;-74
2021/09/16 08:59:11;;;;;;;3.80;2.62;;;20.90;79.20;;;;;;2354332;53;20902;-73
2021/09/16 09:01:38;;;;;;;3.40;2.20;;;20.90;79.20;;;;;;2360640;52;22232;-73
2021/09/16 09:04:04;;;;;;;3.47;2.15;;;21.00;79.30;;;;;;2397864;52;21107;-73
2021/09/16 09:06:37;;;;;;;4.15;2.62;;;21.00;79.10;;;;;;2361535;52;20998;-76
2021/09/16 09:09:17;;;;;;;3.95;2.28;;;21.10;79.10;;;;;;2347394;53;21105;-74
2021/09/16 09:12:09;;;;;;;3.42;2.00;;;21.10;78.80;;;;;;2470929;52;21540;-74
2021/09/16 09:14:43;;;;;;;3.05;1.92;;;21.10;78.90;;;;;;2333748;53;20949;-76
2021/09/16 09:17:23;;;;;;;3.42;1.92;;;21.10;78.90;;;;;;2356502;52;20946;-74
2021/09/16 09:19:51;;;;;;;2.75;1.92;;;21.20;79.20;;;;;;2353605;53;21455;-76
2021/09/16 09:22:18;;;;;;;3.30;2.03;;;21.20;79.60;;;;;;2356249;52;20930;-75
2021/09/16 09:24:47;;;;;;;3.72;1.80;;;21.30;79.90;;;;;;2353718;52;20974;-74
2021/09/16 09:27:27;;;;;;;2.70;1.70;;;21.30;79.70;;;;;;2358340;52;21101;-73
2021/09/16 09:30:19;;;;;;;2.67;1.73;;;21.40;79.20;;;;;;2363398;52;21037;-73
2021/09/16 09:32:50;;;;;;;2.55;1.45;;;21.40;78.70;;;;;;2379981;52;20950;-76
2021/09/16 09:35:50;;;;;;;2.83;1.67;;;21.50;78.80;;;;;;2354201;53;21053;-70
2021/09/16 09:38:24;;;;;;;2.62;1.52;;;21.50;78.00;;;;;;2525945;52;21590;-72
2021/09/16 09:40:52;;;;;;;2.85;1.60;;;21.60;78.50;;;;;;2343527;53;20955;-72
2021/09/16 09:43:34;;;;;;;2.70;1.62;;;21.50;78.40;;;;;;2335587;53;20980;-74
2021/09/16 09:47:46;;;;;;;3.30;1.67;;;21.60;78.00;;;;;;2356290;53;20954;-74
2021/09/16 09:50:30;;;;;;;2.75;1.30;;;21.60;77.60;;;;;;2335281;53;21255;-74
2021/09/16 09:53:11;;;;;;;2.62;1.52;;;21.70;77.90;;;;;;2355948;53;20953;-74
2021/09/16 09:55:39;;;;;;;3.17;1.77;;;21.60;77.80;;;;;;2359988;52;21031;-74
2021/09/16 09:58:05;;;;;;;2.65;1.45;;;21.60;78.20;;;;;;2355068;53;22071;-74
2021/09/16 10:00:32;;;;;;;3.17;1.90;;;21.60;78.20;;;;;;2354261;53;21833;-75
2021/09/16 10:03:00;;;;;;;3.05;1.90;;;21.60;78.20;;;;;;2361448;52;20954;-74
2021/09/16 10:05:31;;;;;;;4.10;2.00;;;21.60;78.20;;;;;;2341628;53;21044;-74
2021/09/16 10:08:13;;;;;;;5.18;1.85;;;21.70;78.20;;;;;;2604008;52;20942;-74
2021/09/16 10:10:44;;;;;;;2.72;1.58;;;21.70;78.10;;;;;;2357800;52;21025;-74
2021/09/16 10:13:17;;;;;;;3.25;2.05;;;21.70;78.60;;;;;;2354365;53;20989;-73
2021/09/16 10:15:49;;;;;;;3.10;1.73;;;21.70;78.70;;;;;;2376329;53;20914;-73
2021/09/16 10:18:15;;;;;;;3.08;1.83;;;21.80;78.70;;;;;;2356817;53;21236;-73
2021/09/16 10:20:42;;;;;;;3.62;2.20;;;21.80;78.70;;;;;;2353709;53;21977;-75
2021/09/16 10:23:08;;;;;;;3.47;2.30;;;21.80;78.20;;;;;;2357154;52;21986;-74
2021/09/16 10:25:41;;;;;;;2.97;2.05;;;21.80;77.80;;;;;;2352580;53;20953;-74
2021/09/16 10:28:07;;;;;;;;;;;21.80;77.80;;;;;;2360607;52;20998;-74
2021/09/16 10:30:52;;;;;;;3.35;2.15;;;21.90;77.20;;;;;;2347788;52;20082;-74
2021/09/16 10:33:28;;;;;;;2.80;1.67;;;21.80;77.30;;;;;;2372993;52;20957;-72
2021/09/16 10:36:13;;;;;;;3.67;2.15;;;21.90;77.80;;;;;;2356145;52;21357;-74
2021/09/16 10:39:01;;;;;;;4.53;2.62;;;21.90;77.60;;;;;;2352461;53;21435;-74
2021/09/16 18:49:06;;;;;;;3.78;2.47;;;21.40;73.30;;;;;;2433734;53;76603;-84
2021/09/16 18:51:33;;;;;;;3.75;2.55;;;21.40;75.00;;;;;;2451777;55;20953;-84
2021/09/16 18:53:59;;;;;;;4.00;2.80;;;21.30;75.00;;;;;;2211456;56;21078;-86
2021/09/16 18:56:25;;;;;;;3.67;2.67;;;21.30;75.00;;;;;;2251546;56;20976;-85
2021/09/16 18:58:52;;;;;;;6.18;2.40;;;21.20;74.80;;;;;;2418456;56;21085;-85
2021/09/16 19:01:18;;;;;;;4.22;2.70;;;21.20;74.80;;;;;;2436163;55;20947;-85
2021/09/16 19:03:45;;;;;;;3.80;2.72;;;21.10;74.80;;;;;;2237215;56;21615;-86
2021/09/16 19:06:11;;;;;;;3.42;2.30;;;21.10;74.80;;;;;;2246321;55;20954;-85
2021/09/16 19:08:48;;;;;;;3.97;2.58;;;21.00;74.70;;;;;;2481108;55;20990;-85
2021/09/16 19:11:15;;;;;;;3.90;2.40;;;21.00;74.70;;;;;;2464778;55;21593;-86
2021/09/16 19:13:43;;;;;;;3.92;2.50;;;21.00;74.90;;;;;;2459041;55;21018;-85
2021/09/16 19:16:09;;;;;;;3.60;2.28;;;20.90;74.90;;;;;;2480437;54;21665;-85
2021/09/16 19:18:36;;;;;;;3.85;2.30;;;20.90;74.90;;;;;;2466548;54;20949;-85
2021/09/16 19:21:02;;;;;;;4.28;3.05;;;20.80;74.90;;;;;;2446806;55;20991;-86
2021/09/16 19:23:28;;;;;;;5.15;3.25;;;20.80;75.00;;;;;;2455884;55;20964;-87
2021/09/16 19:25:55;;;;;;;3.90;2.50;;;20.80;75.00;;;;;;2235749;56;20981;-85
2021/09/16 19:28:27;;;;;;;3.50;2.12;;;20.70;74.90;;;;;;2456404;55;21843;-84
2021/09/16 19:30:57;;;;;;;3.80;2.77;;;20.70;75.00;;;;;;2484323;54;21020;-83
2021/09/16 19:33:23;;;;;;;3.40;2.30;;;20.70;74.80;;;;;;2254604;55;21068;-84
2021/09/16 19:35:52;;;;;;;4.12;2.10;;;20.60;74.80;;;;;;2474697;54;21039;-84
2021/09/16 19:38:18;;;;;;;3.10;2.10;;;20.60;74.90;;;;;;2485521;55;20988;-84
2021/09/16 19:40:45;;;;;;;3.37;2.40;;;20.60;74.80;;;;;;2261738;55;21013;-83
2021/09/16 19:43:11;;;;;;;3.55;2.67;;;20.50;74.70;;;;;;2264927;55;21017;-84
2021/09/16 19:45:37;;;;;;;4.00;2.60;;;20.50;74.50;;;;;;2481058;54;20969;-84
2021/09/16 19:48:04;;;;;;;3.35;2.53;;;20.40;74.40;;;;;;2250971;55;21812;-84
2021/09/16 19:50:32;;;;;;;3.70;2.67;;;20.40;74.60;;;;;;2263109;55;20967;-85
2021/09/16 19:52:59;;;;;;;3.50;2.33;;;20.30;74.60;;;;;;2478794;54;21478;-84
2021/09/16 19:55:26;;;;;;;3.65;2.17;;;20.30;74.70;;;;;;2485731;54;21901;-84
2021/09/16 19:57:52;;;;;;;3.20;2.00;;;20.20;74.80;;;;;;2464659;55;20979;-83
2021/09/16 20:00:18;;;;;;;4.60;2.10;;;20.20;74.90;;;;;;2266298;55;20996;-85
2021/09/16 20:02:44;;;;;;;3.85;2.40;;;20.20;75.70;;;;;;2250932;55;21040;-85
2021/09/16 20:05:11;;;;;;;3.42;2.40;;;20.00;74.70;;;;;;2265924;55;21016;-85
2021/09/16 20:07:38;;;;;;;3.37;2.47;;;20.20;75.20;;;;;;2463067;54;21284;-85
2021/09/16 20:10:04;;;;;;;3.50;2.37;;;20.10;75.20;;;;;;2483022;54;22243;-85
2021/09/16 20:12:31;;;;;;;3.42;2.40;;;19.90;75.10;;;;;;2262352;55;21049;-85
2021/09/16 20:14:57;;;;;;;3.65;2.55;;;20.00;75.10;;;;;;2253783;55;21208;-85
2021/09/16 20:17:23;;;;;;;3.60;2.50;;;20.00;75.10;;;;;;2484668;54;21128;-85
2021/09/16 20:19:50;;;;;;;3.40;2.53;;;20.00;75.30;;;;;;2478916;54;20981;-85
2021/09/16 20:22:16;;;;;;;4.75;2.92;;;20.00;75.40;;;;;;2257652;59;21092;-87
2021/09/16 20:24:43;;;;;;;3.80;2.50;;;19.90;75.40;;;;;;2478665;54;21259;-86
2021/09/16 20:27:10;;;;;;;3.25;1.92;;;19.90;75.50;;;;;;2260205;56;22010;-85
2021/09/16 20:29:39;;;;;;;4.00;2.58;;;19.90;75.50;;;;;;2466730;54;21070;-87
2021/09/16 20:32:06;;;;;;;4.43;2.55;;;19.90;75.50;;;;;;2485251;53;21893;-86
2021/09/16 20:34:32;;;;;;;8.18;2.37;;;19.90;75.70;;;;;;2484160;54;20953;-86
2021/09/16 20:37:02;;;;;;;4.15;2.22;;;19.90;75.80;;;;;;2483578;55;21016;-82
2021/09/16 20:39:30;;;;;;;4.40;2.35;;;19.90;75.80;;;;;;2485102;55;21061;-83
2021/09/16 20:41:57;;;;;;;3.87;2.67;;;19.90;75.90;;;;;;2481721;54;21576;-84
2021/09/16 20:44:25;;;;;;;4.30;3.15;;;19.90;76.00;;;;;;2469752;55;21861;-84
2021/09/16 20:46:52;;;;;;;3.70;2.50;;;19.80;76.00;;;;;;2485544;55;21096;-86
2021/09/16 20:49:19;;;;;;;4.10;2.60;;;19.90;76.10;;;;;;2486078;54;21506;-86
2021/09/16 20:51:45;;;;;;;3.87;2.42;;;19.90;76.20;;;;;;2254884;55;21019;-87
2021/09/16 20:54:11;;;;;;;4.00;2.75;;;19.80;76.00;;;;;;2248905;56;21338;-85
2021/09/16 20:56:38;;;;;;;4.05;2.65;;;19.80;75.90;;;;;;2484942;54;21038;-86
2021/09/16 20:59:04;;;;;;;4.28;3.08;;;19.80;75.90;;;;;;2460002;55;21005;-86